Terminal Aerodrome Forecast
Issued by NWS Mobile, AL

Home | Current Version | Previous Version | Text Only | Print | Product List | Glossary On
Versions: 1 2 3 4 5 6 7 8 9 10 11 12
000
FTUS44 KMOB 290531
TAFMOB
TAF
KMOB 290531Z 2906/3006 00000KT P6SM SCT250
     FM291500 36003KT P6SM SCT250
     FM292000 18008KT P6SM VCTS SCT040CB BKN250
     FM300100 24003KT P6SM BKN250=

USA.gov is the U.S. government's official web portal to all federal, state and local government web resources and services.